Time;durP1;ratioP1;P1;durP2;ratioP2;P2;SDS_P1;SDS_P2;PMS_P1;PMS_P2;Temp;Humidity;BMP_temperature;BMP_pressure;BME280_temperature;BME280_humidity;BME280_pressure;Samples;Min_cycle;Max_cycle;Signal;HPM_P1;HPM_P2
2022/08/15 00:01:16;;;;;;;9.90;8.90;;;24.20;82.90;;;;;;5093401;28;20382;-64
2022/08/15 00:03:45;;;;;;;10.10;8.95;;;24.20;83.10;;;;;;5092121;28;20051;-65
2022/08/15 00:06:15;;;;;;;11.40;8.43;;;24.20;83.20;;;;;;5092101;28;20055;-65
2022/08/15 00:08:46;;;;;;;9.93;8.93;;;24.20;83.40;;;;;;5093124;28;20040;-65
2022/08/15 00:11:18;;;;;;;11.13;9.13;;;24.20;83.40;;;;;;5091634;28;20432;-65
2022/08/15 00:13:46;;;;;;;9.30;8.37;;;24.10;83.40;;;;;;5093144;28;20519;-65
2022/08/15 00:16:13;;;;;;;10.45;8.40;;;24.10;83.40;;;;;;5093235;28;20039;-65
2022/08/15 00:18:40;;;;;;;9.90;8.90;;;24.10;83.40;;;;;;5093163;28;20044;-65
2022/08/15 00:21:06;;;;;;;9.63;8.63;;;24.10;83.40;;;;;;5092608;28;20052;-65
2022/08/15 00:23:31;;;;;;;10.80;9.00;;;24.00;83.70;;;;;;5093081;28;20051;-65
2022/08/15 00:26:00;;;;;;;11.13;9.00;;;24.00;83.90;;;;;;5092855;28;20040;-65
2022/08/15 00:28:28;;;;;;;11.45;10.25;;;24.00;84.00;;;;;;5092945;28;20091;-65
2022/08/15 00:30:54;;;;;;;10.20;9.20;;;24.00;84.40;;;;;;5092570;28;20036;-65
2022/08/15 00:33:20;;;;;;;10.73;9.23;;;23.90;84.40;;;;;;5091812;28;20044;-65
2022/08/15 00:35:49;;;;;;;10.18;9.13;;;23.90;84.60;;;;;;5092544;28;20119;-64
2022/08/15 00:38:23;;;;;;;10.20;9.13;;;23.90;84.60;;;;;;5092861;28;20040;-65
2022/08/15 00:43:47;;;;;;;10.75;9.30;;;23.90;85.00;;;;;;5092597;28;20138;-65
2022/08/15 00:46:15;;;;;;;12.73;9.52;;;23.80;85.30;;;;;;5092403;28;20403;-65
2022/08/15 00:48:41;;;;;;;10.23;9.13;;;23.70;85.70;;;;;;5092683;28;20073;-65
2022/08/15 00:51:18;;;;;;;10.07;8.95;;;23.70;86.00;;;;;;5092118;28;20455;-65
2022/08/15 00:53:49;;;;;;;12.30;9.65;;;23.70;86.00;;;;;;5092454;28;20089;-65
2022/08/15 00:56:17;;;;;;;10.93;9.77;;;23.70;86.30;;;;;;5092482;28;20032;-65
2022/08/15 00:58:44;;;;;;;12.00;9.90;;;23.60;86.50;;;;;;5092297;28;20044;-65
2022/08/15 01:01:12;;;;;;;12.68;10.10;;;23.60;87.00;;;;;;5090687;28;20486;-65
2022/08/15 01:03:40;;;;;;;12.52;10.07;;;23.50;87.50;;;;;;5092364;28;20051;-64
2022/08/15 01:06:06;;;;;;;13.65;10.90;;;23.40;88.10;;;;;;5092375;28;20048;-65
2022/08/15 01:08:34;;;;;;;12.75;11.32;;;23.40;88.30;;;;;;5092190;28;20104;-65
2022/08/15 01:11:04;;;;;;;13.18;10.05;;;23.30;88.80;;;;;;5091857;28;20063;-65
2022/08/15 01:13:32;;;;;;;12.38;10.45;;;23.30;89.20;;;;;;5092316;28;20405;-65
2022/08/15 01:15:58;;;;;;;13.60;11.35;;;23.30;89.80;;;;;;5092280;28;20040;-65
2022/08/15 01:18:24;;;;;;;11.88;10.48;;;23.20;89.80;;;;;;5092238;28;20089;-65
2022/08/15 01:20:53;;;;;;;12.85;11.13;;;23.20;90.00;;;;;;5090406;28;20122;-65
2022/08/15 01:23:30;;;;;;;17.08;10.90;;;23.20;90.10;;;;;;5091959;28;20071;-65
2022/08/15 01:26:03;;;;;;;12.75;11.15;;;23.10;90.30;;;;;;5092318;28;20047;-64
2022/08/15 01:28:42;;;;;;;12.50;10.30;;;23.10;90.40;;;;;;5092051;28;20128;-64
2022/08/15 01:31:13;;;;;;;11.95;10.57;;;23.10;90.40;;;;;;5091767;28;20036;-65
2022/08/15 01:33:50;;;;;;;16.38;11.93;;;23.10;90.40;;;;;;5091781;28;20127;-65
2022/08/15 01:36:18;;;;;;;12.52;10.95;;;23.10;90.40;;;;;;5091697;28;20449;-65
2022/08/15 01:38:53;;;;;;;16.65;10.75;;;23.10;90.30;;;;;;5091905;28;20036;-64
2022/08/15 01:41:30;;;;;;;12.13;10.57;;;23.10;90.30;;;;;;5091893;28;20127;-65
2022/08/15 01:44:04;;;;;;;13.63;11.38;;;23.10;90.40;;;;;;5091877;28;20036;-64
2022/08/15 01:46:35;;;;;;;13.73;11.52;;;23.10;90.60;;;;;;5095218;28;20040;-65
2022/08/15 01:49:15;;;;;;;15.32;11.18;;;23.10;90.60;;;;;;5095804;28;20127;-65
2022/08/15 01:51:41;;;;;;;13.63;11.38;;;23.10;90.60;;;;;;5096071;28;20086;-64
2022/08/15 01:54:10;;;;;;;18.50;11.50;;;23.00;90.90;;;;;;5095943;28;20059;-64
2022/08/15 01:56:40;;;;;;;13.73;12.00;;;23.00;91.10;;;;;;5095701;28;20127;-65
2022/08/15 01:59:12;;;;;;;15.57;12.10;;;23.00;91.10;;;;;;5095600;28;20040;-64
2022/08/15 02:01:48;;;;;;;14.13;11.93;;;23.00;91.30;;;;;;5095800;28;20036;-65
2022/08/15 02:04:18;;;;;;;30.23;13.25;;;22.90;91.50;;;;;;5095750;28;20036;-64
2022/08/15 02:06:44;;;;;;;13.88;12.48;;;22.80;91.60;;;;;;5095717;28;20036;-65
2022/08/15 02:09:14;;;;;;;17.20;12.65;;;22.80;91.70;;;;;;5095368;28;20080;-64
2022/08/15 02:11:41;;;;;;;15.02;11.18;;;22.80;91.90;;;;;;5095479;28;20093;-65
2022/08/15 02:14:07;;;;;;;16.70;11.50;;;22.90;91.90;;;;;;5095595;28;20090;-64
2022/08/15 02:16:35;;;;;;;13.95;12.00;;;22.90;91.90;;;;;;5095682;28;20039;-64
2022/08/15 02:19:03;;;;;;;14.35;12.60;;;22.80;92.00;;;;;;5095454;28;20040;-65
2022/08/15 02:21:29;;;;;;;16.45;13.48;;;22.80;92.20;;;;;;5094131;28;20048;-65
2022/08/15 02:23:57;;;;;;;14.18;12.52;;;22.70;92.40;;;;;;5095211;28;20138;-64
2022/08/15 02:26:22;;;;;;;14.13;12.68;;;22.70;92.50;;;;;;5094234;28;20047;-65
2022/08/15 02:28:48;;;;;;;14.68;13.13;;;22.70;92.60;;;;;;5095176;28;20038;-65
2022/08/15 02:31:18;;;;;;;13.57;12.18;;;22.70;92.60;;;;;;5095003;28;20028;-65
2022/08/15 02:33:52;;;;;;;16.02;13.48;;;22.70;92.70;;;;;;5095037;28;20044;-64
2022/08/15 02:36:18;;;;;;;14.48;12.98;;;22.70;92.90;;;;;;5095170;28;20064;-65
2022/08/15 02:38:46;;;;;;;16.73;13.20;;;22.60;92.90;;;;;;5094934;28;20085;-64
2022/08/15 02:41:13;;;;;;;14.85;13.02;;;22.60;92.90;;;;;;5094960;28;20070;-65
2022/08/15 02:43:45;;;;;;;14.55;13.05;;;22.60;93.10;;;;;;5095052;28;20044;-65
2022/08/15 02:46:12;;;;;;;15.15;13.30;;;22.60;93.30;;;;;;5094978;28;20040;-65
2022/08/15 02:48:39;;;;;;;15.93;13.18;;;22.60;93.30;;;;;;5094805;28;20036;-65
2022/08/15 02:51:10;;;;;;;14.60;13.00;;;22.50;93.40;;;;;;5094466;28;20047;-65
2022/08/15 02:53:36;;;;;;;16.02;12.75;;;22.50;93.30;;;;;;5094926;28;20036;-64
2022/08/15 02:56:06;;;;;;;13.73;12.35;;;22.60;93.30;;;;;;5094194;28;20035;-64
2022/08/15 02:58:34;;;;;;;14.80;13.02;;;22.50;93.20;;;;;;5094235;28;20044;-64
2022/08/15 03:01:04;;;;;;;17.48;14.23;;;22.60;93.30;;;;;;5094478;28;20382;-65
2022/08/15 03:03:30;;;;;;;17.40;13.95;;;22.50;93.30;;;;;;5094462;28;20036;-64
2022/08/15 03:05:57;;;;;;;17.08;13.15;;;22.50;93.40;;;;;;5094496;28;20046;-65
2022/08/15 03:08:23;;;;;;;14.38;12.88;;;22.60;93.60;;;;;;5094602;28;20044;-65
2022/08/15 03:10:50;;;;;;;15.68;13.70;;;22.60;93.40;;;;;;5094281;28;20040;-65
2022/08/15 03:13:16;;;;;;;15.05;13.27;;;22.60;93.40;;;;;;5094401;28;20043;-65
2022/08/15 03:15:45;;;;;;;15.60;14.00;;;22.50;93.50;;;;;;5094448;28;20040;-65
2022/08/15 03:18:13;;;;;;;14.45;12.27;;;22.50;93.50;;;;;;5094247;28;20040;-65
2022/08/15 03:20:40;;;;;;;16.10;13.40;;;22.50;93.50;;;;;;5093962;28;20728;-64
2022/08/15 03:23:07;;;;;;;15.38;13.27;;;22.60;93.50;;;;;;5094100;28;20520;-65
2022/08/15 03:25:39;;;;;;;16.30;14.55;;;22.50;93.50;;;;;;5094290;28;20036;-65
2022/08/15 03:28:05;;;;;;;15.52;13.32;;;22.60;93.40;;;;;;5094191;28;20032;-64
2022/08/15 03:30:31;;;;;;;16.33;13.70;;;22.60;93.40;;;;;;5093734;28;20032;-65
2022/08/15 03:32:58;;;;;;;19.33;14.38;;;22.60;93.30;;;;;;5114605;22;20325;-67
2022/08/15 03:35:27;;;;;;;15.35;13.50;;;22.60;93.50;;;;;;5073755;28;20078;-67
2022/08/15 03:37:55;;;;;;;18.25;14.75;;;22.50;93.70;;;;;;5072137;28;20474;-67
2022/08/15 03:40:21;;;;;;;18.42;14.07;;;22.40;93.90;;;;;;5073326;28;20083;-67
2022/08/15 03:42:52;;;;;;;21.92;15.65;;;22.40;94.00;;;;;;5073648;28;20494;-67
2022/08/15 03:45:19;;;;;;;18.67;14.93;;;22.40;94.10;;;;;;5074009;28;20051;-67
2022/08/15 03:47:45;;;;;;;18.30;14.77;;;22.40;94.20;;;;;;5073662;28;20055;-67
2022/08/15 03:50:12;;;;;;;18.00;14.95;;;22.40;94.20;;;;;;5073188;28;20429;-67
2022/08/15 03:53:07;;;;;;;17.13;14.88;;;22.40;94.30;;;;;;5073437;28;20056;-67
2022/08/15 03:55:36;;;;;;;19.02;14.02;;;22.20;94.70;;;;;;5060295;28;20052;-67
2022/08/15 03:58:03;;;;;;;16.70;14.60;;;22.20;95.20;;;;;;5071932;28;20387;-67
2022/08/15 04:00:33;;;;;;;16.05;14.45;;;22.10;95.30;;;;;;5071927;28;20033;-67
2022/08/15 04:03:08;;;;;;;15.93;14.13;;;22.10;95.50;;;;;;5073234;28;20033;-67
2022/08/15 04:05:35;;;;;;;17.02;15.23;;;22.10;95.90;;;;;;5071693;28;20512;-67
2022/08/15 04:08:02;;;;;;;17.30;14.82;;;22.10;96.30;;;;;;5072792;28;20122;-67
2022/08/15 04:10:28;;;;;;;17.25;14.85;;;22.00;96.50;;;;;;5071558;28;20052;-67
2022/08/15 04:12:54;;;;;;;17.58;15.32;;;22.00;96.80;;;;;;5071976;28;20058;-67
2022/08/15 04:15:19;;;;;;;17.30;15.25;;;22.00;97.00;;;;;;5073025;28;20521;-67
2022/08/15 04:17:45;;;;;;;18.25;15.50;;;22.00;96.90;;;;;;5073032;28;20048;-67
2022/08/15 04:20:11;;;;;;;20.13;15.45;;;22.00;96.80;;;;;;5071282;28;20044;-67
2022/08/15 04:22:44;;;;;;;17.85;15.88;;;21.90;96.80;;;;;;5071583;28;20040;-67
2022/08/15 04:25:13;;;;;;;17.55;15.68;;;22.00;96.80;;;;;;5073039;28;20044;-67
2022/08/15 04:27:40;;;;;;;18.65;15.95;;;21.90;97.00;;;;;;5072795;28;20036;-67
2022/08/15 04:30:07;;;;;;;19.42;15.73;;;21.90;96.90;;;;;;5072292;28;20453;-67
2022/08/15 04:32:33;;;;;;;16.77;15.05;;;21.90;97.00;;;;;;5072680;28;20086;-67
2022/08/15 04:34:59;;;;;;;17.95;14.77;;;21.90;97.20;;;;;;5072364;28;20040;-67
2022/08/15 04:37:26;;;;;;;17.48;15.60;;;21.90;96.90;;;;;;5071135;28;20044;-67
2022/08/15 04:39:53;;;;;;;17.88;16.00;;;21.90;96.90;;;;;;5071153;28;20055;-67
2022/08/15 04:42:20;;;;;;;22.50;16.38;;;21.90;97.00;;;;;;5071152;28;20080;-67
2022/08/15 04:44:47;;;;;;;17.55;15.35;;;21.90;96.90;;;;;;5072054;28;20586;-67
2022/08/15 04:47:14;;;;;;;17.98;16.13;;;21.90;96.90;;;;;;5071664;28;20124;-67
2022/08/15 04:49:40;;;;;;;20.83;15.25;;;21.90;97.00;;;;;;5069122;28;20528;-67
2022/08/15 04:52:18;;;;;;;18.75;15.27;;;21.90;97.20;;;;;;5072240;28;20037;-67
2022/08/15 04:54:45;;;;;;;18.13;16.02;;;21.90;97.20;;;;;;5072296;28;20044;-66
2022/08/15 04:57:12;;;;;;;19.70;15.90;;;21.90;97.20;;;;;;5072325;28;20036;-66
2022/08/15 04:59:39;;;;;;;18.17;15.68;;;21.90;97.00;;;;;;5070702;28;20572;-67
2022/08/15 05:02:10;;;;;;;17.77;15.82;;;22.00;97.00;;;;;;5072061;28;20593;-67
2022/08/15 05:04:35;;;;;;;17.23;15.23;;;22.00;96.80;;;;;;5069543;28;20639;-67
2022/08/15 05:07:01;;;;;;;19.33;16.25;;;22.00;96.80;;;;;;5071993;28;20040;-67
2022/08/15 05:09:27;;;;;;;19.00;16.98;;;22.00;96.60;;;;;;5071770;28;20059;-66
2022/08/15 05:11:52;;;;;;;20.60;15.77;;;22.10;96.60;;;;;;5071628;28;20505;-66
2022/08/15 05:14:18;;;;;;;17.25;15.20;;;22.10;96.50;;;;;;5071687;28;20463;-66
2022/08/15 05:16:44;;;;;;;23.42;16.05;;;22.10;96.40;;;;;;5071378;28;20437;-66
2022/08/15 05:19:10;;;;;;;20.27;16.67;;;22.10;96.40;;;;;;5070814;28;20098;-67
2022/08/15 05:21:38;;;;;;;19.70;15.65;;;22.10;96.40;;;;;;5071188;28;20108;-66
2022/08/15 05:24:04;;;;;;;19.25;15.80;;;22.20;96.30;;;;;;5071474;28;20055;-67
2022/08/15 05:26:32;;;;;;;19.30;15.05;;;22.20;96.30;;;;;;5071541;28;20048;-66
2022/08/15 05:28:58;;;;;;;21.63;16.85;;;22.20;96.40;;;;;;5071747;28;20050;-66
2022/08/15 05:31:25;;;;;;;22.02;17.08;;;22.20;96.30;;;;;;5071502;28;20596;-66
2022/08/15 05:33:51;;;;;;;22.20;17.75;;;22.20;96.30;;;;;;5070253;28;20114;-67
2022/08/15 05:36:18;;;;;;;18.50;16.50;;;22.20;96.40;;;;;;5071752;28;20044;-67
2022/08/15 05:38:53;;;;;;;17.95;15.82;;;22.20;96.40;;;;;;5070199;28;20040;-67
2022/08/15 05:41:31;;;;;;;18.10;15.98;;;22.20;96.40;;;;;;5071354;28;20410;-66
2022/08/15 05:44:21;;;;;;;19.20;16.60;;;22.20;96.60;;;;;;5070498;28;20473;-68
2022/08/15 05:47:09;;;;;;;20.67;16.88;;;22.30;96.30;;;;;;5070243;28;20409;-68
2022/08/15 05:49:51;;;;;;;19.02;16.98;;;22.30;96.50;;;;;;5070084;28;20044;-68
2022/08/15 05:52:30;;;;;;;18.73;16.70;;;22.30;96.50;;;;;;5071579;28;20441;-68
2022/08/15 05:55:24;;;;;;;20.52;17.00;;;22.30;96.50;;;;;;5071690;28;20513;-68
2022/08/15 05:58:17;;;;;;;19.90;17.38;;;22.30;96.20;;;;;;5071625;28;20055;-68
2022/08/15 06:00:55;;;;;;;19.75;17.33;;;22.30;96.30;;;;;;5071095;28;20071;-68
2022/08/15 06:03:26;;;;;;;20.45;17.50;;;22.30;96.30;;;;;;5071604;28;20074;-68
2022/08/15 06:05:57;;;;;;;20.55;17.42;;;22.20;96.40;;;;;;5071558;28;20040;-68
2022/08/15 06:08:29;;;;;;;19.67;17.20;;;22.20;96.50;;;;;;5071360;28;20036;-68
2022/08/15 06:11:03;;;;;;;21.60;18.50;;;22.20;96.50;;;;;;5071061;28;20127;-68
2022/08/15 06:13:46;;;;;;;19.83;17.80;;;22.30;96.50;;;;;;5070310;28;20045;-68
2022/08/15 06:16:24;;;;;;;20.08;17.10;;;22.30;96.30;;;;;;5071467;28;20110;-68
2022/08/15 06:18:50;;;;;;;23.10;17.77;;;22.30;96.30;;;;;;5070273;28;20391;-68
2022/08/15 06:21:24;;;;;;;24.58;17.27;;;22.40;96.40;;;;;;5071045;28;20051;-68
2022/08/15 06:24:08;;;;;;;20.30;18.08;;;22.40;96.20;;;;;;5071094;28;20053;-68
2022/08/15 06:26:52;;;;;;;19.13;17.13;;;22.40;96.00;;;;;;5071367;28;20406;-68
2022/08/15 06:29:43;;;;;;;19.92;17.90;;;22.50;95.90;;;;;;5070831;28;20032;-68
2022/08/15 06:32:19;;;;;;;20.10;18.00;;;22.50;95.80;;;;;;5073680;28;20036;-68
2022/08/15 06:34:53;;;;;;;21.50;18.05;;;22.50;96.00;;;;;;5074715;28;20040;-68
2022/08/15 06:37:31;;;;;;;20.30;17.50;;;22.50;95.90;;;;;;5074718;28;20650;-68
2022/08/15 06:40:10;;;;;;;20.02;17.02;;;22.50;96.00;;;;;;5074416;28;20551;-68
2022/08/15 06:42:42;;;;;;;21.55;17.55;;;22.60;95.90;;;;;;5074962;28;20040;-69
2022/08/15 06:45:15;;;;;;;20.38;16.63;;;22.60;95.80;;;;;;5075147;28;20044;-68
2022/08/15 06:47:42;;;;;;;18.15;16.25;;;22.70;95.50;;;;;;5074322;28;20496;-68
2022/08/15 06:50:19;;;;;;;21.38;16.35;;;22.90;95.30;;;;;;5074454;28;20032;-68
2022/08/15 06:53:02;;;;;;;74.10;26.00;;;23.10;94.90;;;;;;5074606;28;20085;-68
2022/08/15 06:55:39;;;;;;;60.35;23.25;;;23.20;94.40;;;;;;5074924;28;20094;-68
2022/08/15 06:58:14;;;;;;;32.90;18.38;;;23.50;94.10;;;;;;5074605;28;20040;-68
2022/08/15 07:00:46;;;;;;;21.98;15.68;;;23.80;93.60;;;;;;5074223;28;20075;-68
2022/08/15 07:03:42;;;;;;;24.33;17.15;;;24.00;93.10;;;;;;5074190;28;20032;-68
2022/08/15 07:06:12;;;;;;;59.22;20.67;;;24.30;92.80;;;;;;5075046;28;20040;-68
2022/08/15 07:08:49;;;;;;;27.45;16.88;;;24.40;92.20;;;;;;5073183;28;20099;-68
2022/08/15 07:11:35;;;;;;;16.15;14.48;;;24.40;91.80;;;;;;5074040;28;20045;-68
2022/08/15 07:14:06;;;;;;;16.58;14.07;;;24.50;91.70;;;;;;5074166;28;20036;-69
2022/08/15 07:16:50;;;;;;;16.33;13.48;;;24.60;91.60;;;;;;5074176;28;20083;-68
2022/08/15 07:19:17;;;;;;;15.57;13.80;;;24.50;91.60;;;;;;5073747;28;20066;-68
2022/08/15 07:21:43;;;;;;;16.73;14.57;;;24.40;91.80;;;;;;5073007;28;20060;-68
2022/08/15 07:24:32;;;;;;;18.17;14.48;;;24.40;91.90;;;;;;5073823;28;20033;-68
2022/08/15 07:27:08;;;;;;;17.35;13.38;;;24.40;92.00;;;;;;5068278;28;20041;-68
2022/08/15 07:29:36;;;;;;;16.27;13.48;;;24.40;92.30;;;;;;5073485;28;20048;-68
2022/08/15 07:32:20;;;;;;;17.92;14.02;;;24.60;92.20;;;;;;5072608;28;20040;-68
2022/08/15 07:34:53;;;;;;;15.55;13.95;;;25.00;92.00;;;;;;5073553;28;20395;-68
2022/08/15 07:37:20;;;;;;;13.65;12.07;;;25.30;91.80;;;;;;5073849;28;20040;-68
2022/08/15 07:39:57;;;;;;;13.52;10.73;;;25.40;91.00;;;;;;5073559;28;20040;-68
2022/08/15 07:42:23;;;;;;;14.93;10.68;;;25.50;90.40;;;;;;5073259;28;20079;-68
2022/08/15 07:44:57;;;;;;;15.13;9.80;;;25.60;90.00;;;;;;5072063;28;20068;-68
2022/08/15 07:47:28;;;;;;;10.88;9.70;;;25.60;87.40;;;;;;5072304;28;20057;-68
2022/08/15 07:50:19;;;;;;;12.77;9.82;;;25.60;87.10;;;;;;5073303;28;20116;-68
2022/08/15 07:52:59;;;;;;;15.30;9.95;;;25.60;86.70;;;;;;5073396;28;20040;-69
2022/08/15 07:55:25;;;;;;;10.73;9.73;;;25.60;87.00;;;;;;5073313;28;20447;-68
2022/08/15 07:58:02;;;;;;;13.73;10.00;;;25.60;87.10;;;;;;5073437;28;20037;-68
2022/08/15 08:00:29;;;;;;;9.88;8.88;;;25.80;87.30;;;;;;5071942;28;20395;-68
2022/08/15 08:03:01;;;;;;;14.57;8.85;;;25.70;86.50;;;;;;5071893;28;20037;-68
2022/08/15 08:06:00;;;;;;;9.13;8.23;;;25.80;84.90;;;;;;5073198;28;20040;-68
2022/08/15 08:08:38;;;;;;;8.88;7.95;;;25.80;82.70;;;;;;5058915;28;20049;-68
2022/08/15 08:11:12;;;;;;;9.32;8.38;;;26.00;82.60;;;;;;5071607;28;20116;-68
2022/08/15 08:13:51;;;;;;;10.15;7.63;;;26.50;83.20;;;;;;5073000;28;20043;-68
2022/08/15 08:16:28;;;;;;;9.13;7.63;;;26.60;79.60;;;;;;5072931;28;20395;-68
2022/08/15 08:19:08;;;;;;;8.90;7.78;;;26.60;78.50;;;;;;5073029;28;20044;-68
2022/08/15 08:21:50;;;;;;;9.82;7.88;;;26.40;77.50;;;;;;5072851;28;20073;-68
2022/08/15 08:24:48;;;;;;;10.27;8.30;;;26.20;77.90;;;;;;5072882;28;20115;-68
2022/08/15 08:27:33;;;;;;;12.05;8.30;;;26.10;79.10;;;;;;5050355;28;20506;-68
2022/08/15 08:30:21;;;;;;;9.52;7.78;;;26.10;78.20;;;;;;5070345;28;20517;-68
2022/08/15 08:32:59;;;;;;;9.90;8.15;;;26.20;78.30;;;;;;5071388;28;20036;-69
2022/08/15 08:35:30;;;;;;;10.93;9.07;;;26.30;78.70;;;;;;5071558;28;20039;-68
2022/08/15 08:38:34;;;;;;;10.63;9.20;;;26.30;78.70;;;;;;5072233;28;20049;-69
2022/08/15 08:44:12;;;;;;;;;;;26.30;79.10;;;;;;5068877;28;20417;-68
2022/08/15 08:47:10;;;;;;;15.68;10.70;;;26.20;79.70;;;;;;5070387;28;19923;-68
2022/08/15 08:49:52;;;;;;;12.13;9.25;;;26.30;79.30;;;;;;5066039;28;20043;-68
2022/08/15 08:52:46;;;;;;;12.27;9.68;;;26.50;79.30;;;;;;5069473;28;20037;-68
2022/08/15 08:55:29;;;;;;;10.40;8.77;;;26.50;78.80;;;;;;5068784;28;20501;-68
2022/08/15 08:58:07;;;;;;;;;;;26.70;78.10;;;;;;5072065;28;20036;-69
2022/08/15 09:00:42;;;;;;;10.95;8.73;;;26.80;77.90;;;;;;5071298;28;20431;-66
2022/08/15 09:03:34;;;;;;;13.93;8.32;;;27.00;76.80;;;;;;5071502;28;20394;-69
2022/08/15 09:06:01;;;;;;;11.88;7.85;;;27.40;76.00;;;;;;5051759;28;20048;-69
2022/08/15 09:08:35;;;;;;;9.93;6.25;;;27.70;74.30;;;;;;5069644;28;20029;-69
2022/08/15 09:11:21;;;;;;;8.63;7.47;;;28.00;72.70;;;;;;5071163;28;20120;-69
2022/08/15 09:13:48;;;;;;;8.95;6.90;;;28.30;71.60;;;;;;5070250;28;20086;-68
2022/08/15 09:16:33;;;;;;;11.23;6.53;;;28.30;70.80;;;;;;5071355;28;20050;-68
2022/08/15 09:19:21;;;;;;;8.13;6.07;;;28.40;68.00;;;;;;5071666;28;20136;-69
2022/08/15 09:21:47;;;;;;;8.63;7.30;;;28.70;66.50;;;;;;5071610;28;20047;-68
2022/08/15 09:24:15;;;;;;;10.98;7.38;;;28.80;65.90;;;;;;5071216;28;20032;-69
2022/08/15 09:27:04;;;;;;;6.95;6.25;;;29.00;65.80;;;;;;5070266;28;20127;-68
2022/08/15 09:29:43;;;;;;;7.95;6.18;;;29.20;63.80;;;;;;5057920;28;20040;-69
2022/08/15 09:32:16;;;;;;;7.97;6.47;;;29.40;63.60;;;;;;5070009;28;20509;-69
2022/08/15 09:35:15;;;;;;;7.75;6.45;;;29.50;63.10;;;;;;5107905;22;20075;-64
2022/08/15 09:38:12;;;;;;;8.60;6.95;;;29.60;61.90;;;;;;5091092;28;20036;-65
2022/08/15 09:40:56;;;;;;;8.65;7.38;;;29.80;62.60;;;;;;5091013;28;20066;-65
2022/08/15 09:43:40;;;;;;;9.85;7.28;;;29.70;61.80;;;;;;5091322;28;20040;-64
2022/08/15 09:46:36;;;;;;;8.00;7.20;;;29.70;62.50;;;;;;5091588;28;20040;-65
2022/08/15 09:49:02;;;;;;;7.95;7.13;;;29.70;60.80;;;;;;5089954;28;20040;-64
2022/08/15 09:51:28;;;;;;;8.00;7.20;;;29.50;61.90;;;;;;5091214;28;20122;-64
2022/08/15 09:54:21;;;;;;;8.35;6.32;;;29.60;62.10;;;;;;5091473;28;20079;-64
2022/08/15 09:56:48;;;;;;;8.00;6.95;;;29.50;61.90;;;;;;5074077;28;20115;-65
2022/08/15 09:59:18;;;;;;;10.23;6.70;;;29.50;62.70;;;;;;5091457;28;20055;-65
2022/08/15 10:02:21;;;;;;;7.50;6.80;;;29.50;62.70;;;;;;5091586;28;20473;-65
2022/08/15 10:04:50;;;;;;;7.35;6.22;;;29.60;62.90;;;;;;5091487;28;20067;-64
2022/08/15 10:07:15;;;;;;;9.95;7.18;;;29.60;63.10;;;;;;5094302;28;20047;-64
2022/08/15 10:09:43;;;;;;;8.93;6.22;;;29.60;62.40;;;;;;5095183;28;20118;-65
2022/08/15 10:12:09;;;;;;;11.98;6.93;;;29.40;61.70;;;;;;5095455;28;20075;-64
2022/08/15 10:14:47;;;;;;;9.43;6.57;;;29.50;61.70;;;;;;5095411;28;20043;-65
2022/08/15 10:17:31;;;;;;;8.52;6.97;;;29.40;61.20;;;;;;5095511;28;20115;-66
2022/08/15 10:20:17;;;;;;;7.85;6.57;;;29.50;60.50;;;;;;5095133;28;20060;-65
2022/08/15 10:22:59;;;;;;;7.30;6.60;;;29.50;61.00;;;;;;5095256;28;20405;-66
2022/08/15 10:25:33;;;;;;;8.00;6.40;;;29.60;60.70;;;;;;5094323;28;20052;-65
2022/08/15 10:28:05;;;;;;;8.40;7.20;;;29.60;60.30;;;;;;5094201;28;20036;-66
2022/08/15 10:30:46;;;;;;;7.80;6.07;;;29.60;60.20;;;;;;5095057;28;20123;-65
2022/08/15 10:33:24;;;;;;;13.15;7.40;;;29.70;60.60;;;;;;5093756;28;20044;-66
2022/08/15 10:35:51;;;;;;;10.25;7.30;;;29.60;60.40;;;;;;5094931;28;20036;-66
2022/08/15 10:38:25;;;;;;;9.38;6.60;;;29.60;60.20;;;;;;5094913;28;20040;-65
2022/08/15 10:41:09;;;;;;;7.03;5.57;;;29.60;59.70;;;;;;5094813;28;20067;-65
2022/08/15 10:44:02;;;;;;;9.63;6.78;;;29.70;59.30;;;;;;5093422;28;20131;-65
2022/08/15 10:46:44;;;;;;;8.18;6.53;;;29.80;59.10;;;;;;5094679;28;20509;-65
2022/08/15 10:49:35;;;;;;;7.50;6.22;;;29.90;60.50;;;;;;5093851;28;20100;-66
2022/08/15 10:52:18;;;;;;;9.02;6.68;;;30.00;59.40;;;;;;5092493;28;20080;-66
2022/08/15 10:55:05;;;;;;;7.18;6.47;;;30.10;59.40;;;;;;5093828;28;20039;-65
2022/08/15 10:57:47;;;;;;;6.80;6.05;;;30.10;55.50;;;;;;5082198;28;20043;-65
2022/08/15 11:00:45;;;;;;;6.50;5.88;;;30.10;54.60;;;;;;5091328;28;20493;-66
2022/08/15 11:03:18;;;;;;;6.25;5.38;;;30.40;54.90;;;;;;5093466;28;20113;-66
2022/08/15 11:05:53;;;;;;;7.90;5.90;;;30.40;55.50;;;;;;5094288;28;20028;-67
2022/08/15 11:08:19;;;;;;;7.85;6.45;;;30.40;56.10;;;;;;5091775;28;20043;-67
2022/08/15 11:10:46;;;;;;;7.20;6.47;;;30.30;55.60;;;;;;5093770;28;20038;-64
2022/08/15 11:13:17;;;;;;;7.57;6.85;;;30.20;55.00;;;;;;5093390;28;20039;-64
2022/08/15 11:15:49;;;;;;;10.25;7.47;;;30.20;56.20;;;;;;5090784;28;20458;-64
2022/08/15 11:18:19;;;;;;;;;;;30.10;59.00;;;;;;5090937;28;20386;-64
2022/08/15 11:20:49;;;;;;;11.90;8.45;;;29.70;61.50;;;;;;5093909;28;20449;-64
2022/08/15 11:23:36;;;;;;;9.07;8.10;;;29.50;61.30;;;;;;5094019;28;20048;-64
2022/08/15 11:26:04;;;;;;;12.52;8.88;;;29.20;61.60;;;;;;5094267;28;20043;-64
2022/08/15 11:28:30;;;;;;;12.02;9.88;;;29.00;62.10;;;;;;5093268;28;20036;-64
2022/08/15 11:31:15;;;;;;;11.70;10.50;;;28.80;63.30;;;;;;5093666;28;20444;-64
2022/08/15 11:33:50;;;;;;;12.73;11.27;;;28.50;64.30;;;;;;5093669;28;20166;-65
2022/08/15 11:36:19;;;;;;;15.50;11.85;;;28.20;65.70;;;;;;5092465;28;20101;-64
2022/08/15 11:38:52;;;;;;;19.67;12.75;;;28.00;66.00;;;;;;5094174;28;20048;-66
2022/08/15 11:41:22;;;;;;;;;;;27.70;66.20;;;;;;5093544;28;20531;-67
2022/08/15 11:43:50;;;;;;;15.48;10.98;;;27.50;67.70;;;;;;5093329;28;19920;-66
2022/08/15 11:46:20;;;;;;;20.05;12.40;;;27.40;68.10;;;;;;5093336;28;20043;-68
2022/08/15 11:48:51;;;;;;;13.20;10.98;;;27.40;68.80;;;;;;5093571;28;20117;-68
2022/08/15 11:51:16;;;;;;;13.10;10.98;;;27.30;69.40;;;;;;5093401;28;20047;-66
2022/08/15 11:54:04;;;;;;;13.68;11.10;;;27.20;70.30;;;;;;5093478;28;20044;-66
2022/08/15 11:56:48;;;;;;;13.27;11.55;;;27.20;71.50;;;;;;5093458;28;20047;-66
2022/08/15 11:59:28;;;;;;;13.27;11.93;;;27.20;72.60;;;;;;5093133;28;20514;-65
2022/08/15 12:02:11;;;;;;;14.20;12.65;;;27.20;74.10;;;;;;5075179;28;20486;-66
2022/08/15 12:04:40;;;;;;;16.25;11.60;;;27.10;74.10;;;;;;5093332;28;20032;-66
2022/08/15 12:07:23;;;;;;;17.65;11.57;;;27.10;75.60;;;;;;5093138;28;20067;-69
2022/08/15 12:09:58;;;;;;;17.35;11.52;;;27.30;76.80;;;;;;5093174;28;20055;-69
2022/08/15 12:12:42;;;;;;;12.55;11.05;;;27.40;76.50;;;;;;5093126;28;20516;-69
2022/08/15 12:15:14;;;;;;;14.00;12.35;;;27.50;75.90;;;;;;5092651;28;20040;-70
2022/08/15 12:17:45;;;;;;;14.88;12.25;;;27.60;75.40;;;;;;5093240;28;20036;-69
2022/08/15 12:20:11;;;;;;;12.98;11.63;;;27.60;75.70;;;;;;5092667;28;20040;-69
2022/08/15 12:22:41;;;;;;;12.90;11.45;;;27.70;76.40;;;;;;5091540;28;20111;-67
2022/08/15 12:25:09;;;;;;;14.15;11.82;;;27.70;77.60;;;;;;5089835;28;20036;-69
2022/08/15 12:27:35;;;;;;;12.02;10.80;;;27.60;76.50;;;;;;5092243;28;20101;-69
2022/08/15 12:30:07;;;;;;;12.40;10.45;;;27.60;75.50;;;;;;5073419;28;20047;-69
2022/08/15 12:32:32;;;;;;;14.63;10.53;;;27.60;75.00;;;;;;5092386;28;20036;-69
2022/08/15 12:34:59;;;;;;;11.00;9.90;;;27.50;74.30;;;;;;5091811;28;20085;-69
2022/08/15 12:37:26;;;;;;;11.25;10.15;;;27.50;74.60;;;;;;5092545;28;20047;-70
2022/08/15 12:40:06;;;;;;;12.02;9.95;;;27.50;75.10;;;;;;5092084;28;20509;-70
2022/08/15 12:42:36;;;;;;;11.25;10.20;;;27.50;75.60;;;;;;5091668;28;20044;-69
2022/08/15 12:45:10;;;;;;;11.20;9.90;;;27.40;75.40;;;;;;5092816;28;20127;-69
2022/08/15 12:47:36;;;;;;;12.80;9.77;;;27.50;75.80;;;;;;5092817;28;20493;-69
2022/08/15 12:50:04;;;;;;;13.13;10.48;;;27.40;77.00;;;;;;5092268;28;20123;-69
2022/08/15 12:52:30;;;;;;;12.60;10.18;;;27.40;77.60;;;;;;5092189;28;20494;-69
2022/08/15 12:54:57;;;;;;;11.93;10.35;;;27.50;77.80;;;;;;5091689;28;20107;-69
2022/08/15 12:57:24;;;;;;;11.75;10.32;;;27.60;79.20;;;;;;5090726;28;20040;-70
2022/08/15 12:59:49;;;;;;;12.65;9.60;;;27.80;80.00;;;;;;5091721;28;20036;-69
2022/08/15 13:02:15;;;;;;;11.02;9.82;;;27.80;77.90;;;;;;5092149;28;20032;-67
2022/08/15 13:04:46;;;;;;;9.07;8.27;;;27.90;77.50;;;;;;5092291;28;20044;-68
2022/08/15 13:07:14;;;;;;;9.70;8.27;;;27.90;76.10;;;;;;5092348;28;20040;-69
2022/08/15 13:09:42;;;;;;;11.15;7.72;;;27.80;76.30;;;;;;5090419;28;20493;-69